Time;durP1;ratioP1;P1;durP2;ratioP2;P2;SDS_P1;SDS_P2;PMS_P1;PMS_P2;Temp;Humidity;BMP_temperature;BMP_pressure;BME280_temperature;BME280_humidity;BME280_pressure;Samples;Min_cycle;Max_cycle;Signal;HPM_P1;HPM_P2
2023/12/22 00:01:11;;;;;;;17.33;1.83;;;;;;;5.07;100.00;98312.50;5156786;28;20385;-75
2023/12/22 00:03:49;;;;;;;15.27;2.17;;;;;;;4.96;100.00;98299.22;5155542;28;20037;-75
2023/12/22 00:06:20;;;;;;;29.27;2.75;;;;;;;4.94;100.00;98308.81;5155487;28;20407;-73
2023/12/22 00:08:50;;;;;;;12.73;2.20;;;;;;;4.92;100.00;98305.47;5156407;28;20030;-75
2023/12/22 00:11:20;;;;;;;17.23;2.20;;;;;;;4.91;100.00;98318.47;5155460;28;20049;-73
2023/12/22 00:13:50;;;;;;;17.52;2.38;;;;;;;4.90;100.00;98321.97;5156006;28;20030;-74
2023/12/22 00:16:21;;;;;;;20.60;2.97;;;;;;;4.88;100.00;98332.44;5154518;28;20272;-74
2023/12/22 00:18:52;;;;;;;14.25;2.45;;;;;;;4.89;100.00;98323.75;5155445;28;20026;-73
2023/12/22 00:21:22;;;;;;;25.48;4.90;;;;;;;4.96;100.00;98325.13;5155529;28;20073;-74
2023/12/22 00:23:53;;;;;;;18.60;2.20;;;;;;;4.95;100.00;98318.25;5154744;28;20169;-73
2023/12/22 00:26:23;;;;;;;16.05;2.58;;;;;;;5.03;100.00;98326.50;5152061;28;20590;-74
2023/12/22 00:28:53;;;;;;;14.60;1.80;;;;;;;5.07;100.00;98322.84;5154556;28;20033;-73
2023/12/22 00:31:24;;;;;;;17.40;2.35;;;;;;;5.09;100.00;98330.50;5154679;28;20034;-74
2023/12/22 00:33:54;;;;;;;13.90;2.20;;;;;;;5.16;100.00;98327.53;5154691;28;20034;-74
2023/12/22 00:36:24;;;;;;;16.67;2.22;;;;;;;5.07;100.00;98322.00;5153851;28;20045;-74
2023/12/22 00:38:55;;;;;;;16.67;2.35;;;;;;;5.21;100.00;98315.22;5152761;28;20041;-74
2023/12/22 00:41:25;;;;;;;13.27;2.00;;;;;;;5.19;100.00;98332.56;5153374;28;20034;-74
2023/12/22 00:43:55;;;;;;;24.00;2.67;;;;;;;5.25;100.00;98326.25;5153663;28;20188;-74
2023/12/22 00:46:25;;;;;;;17.48;2.58;;;;;;;5.27;100.00;98329.59;5158280;28;20405;-74
2023/12/22 00:48:56;;;;;;;21.02;2.55;;;;;;;5.24;100.00;98340.97;5156555;28;20041;-73
2023/12/22 00:51:26;;;;;;;17.33;2.17;;;;;;;5.33;100.00;98335.31;5157591;28;20512;-74
2023/12/22 00:53:56;;;;;;;16.42;2.50;;;;;;;5.32;99.88;98331.03;5159827;28;20060;-74
2023/12/22 00:56:27;;;;;;;21.33;2.05;;;;;;;5.30;99.86;98330.28;5160632;28;20105;-74
2023/12/22 00:58:57;;;;;;;22.50;2.42;;;;;;;5.34;100.00;98331.78;5160579;28;20026;-74
2023/12/22 01:01:27;;;;;;;20.05;2.10;;;;;;;5.42;98.33;98332.25;5158364;28;20369;-74
2023/12/22 01:03:57;;;;;;;16.63;2.03;;;;;;;5.35;97.85;98323.13;5158616;28;20030;-75
2023/12/22 01:06:28;;;;;;;15.77;2.92;;;;;;;5.39;98.06;98340.19;5157528;28;20589;-74
2023/12/22 01:08:58;;;;;;;17.52;2.75;;;;;;;5.41;97.21;98344.34;5157403;28;20054;-74
2023/12/22 01:11:28;;;;;;;18.08;2.17;;;;;;;5.38;97.05;98334.16;5147180;28;20023;-74
2023/12/22 01:13:59;;;;;;;19.30;1.80;;;;;;;5.42;96.45;98329.69;5154122;28;20028;-74
2023/12/22 01:16:29;;;;;;;17.38;2.40;;;;;;;5.37;97.61;98334.25;5158187;28;20040;-74
2023/12/22 01:18:59;;;;;;;22.98;3.22;;;;;;;5.39;97.65;98350.56;5158822;28;20030;-73
2023/12/22 01:21:29;;;;;;;17.42;2.42;;;;;;;5.34;96.93;98331.78;5159600;28;20031;-73
2023/12/22 01:24:00;;;;;;;18.63;2.15;;;;;;;5.30;97.49;98335.47;5160092;28;20132;-74
2023/12/22 01:26:30;;;;;;;20.52;2.65;;;;;;;5.28;97.51;98342.47;5157169;28;20112;-75
2023/12/22 01:29:00;;;;;;;20.83;2.83;;;;;;;5.28;97.39;98346.81;5157102;28;20031;-75
2023/12/22 01:31:31;;;;;;;18.48;2.17;;;;;;;5.35;96.37;98355.94;5158643;28;20395;-74
2023/12/22 01:34:01;;;;;;;18.20;1.83;;;;;;;5.31;97.13;98351.84;5142961;28;20026;-75
2023/12/22 01:36:31;;;;;;;15.73;1.70;;;;;;;5.41;95.17;98361.66;5158928;28;20026;-74
2023/12/22 01:39:02;;;;;;;12.90;1.77;;;;;;;5.42;96.00;98368.53;5160503;28;20060;-74
2023/12/22 01:41:33;;;;;;;22.05;2.30;;;;;;;5.43;96.13;98377.97;5158630;28;20534;-73
2023/12/22 01:44:03;;;;;;;15.73;2.47;;;;;;;5.35;96.94;98368.91;5158498;28;20041;-74
2023/12/22 01:46:35;;;;;;;17.45;2.38;;;;;;;5.37;97.99;98386.06;5157356;28;20064;-73
2023/12/22 01:49:07;;;;;;;14.68;2.08;;;;;;;5.39;98.05;98381.63;5155468;28;20049;-75
2023/12/22 01:51:39;;;;;;;21.38;2.85;;;;;;;5.36;98.50;98393.88;5158880;28;20077;-74
2023/12/22 01:54:11;;;;;;;14.77;2.25;;;;;;;5.43;98.32;98393.50;5159378;28;20117;-74
2023/12/22 01:56:42;;;;;;;15.32;2.00;;;;;;;5.41;97.66;98390.16;5157933;28;20537;-74
2023/12/22 01:59:13;;;;;;;21.23;2.15;;;;;;;5.41;98.61;98390.16;5160044;28;20030;-74
2023/12/22 02:01:45;;;;;;;13.88;2.13;;;;;;;5.38;98.46;98392.06;5156914;28;20022;-75
2023/12/22 02:04:16;;;;;;;16.80;2.08;;;;;;;5.37;97.99;98401.59;5159135;28;20034;-74
2023/12/22 02:06:46;;;;;;;13.27;1.90;;;;;;;5.42;98.02;98405.59;5157865;28;20045;-74
2023/12/22 02:09:16;;;;;;;18.23;1.85;;;;;;;5.40;97.62;98399.66;5159567;28;20242;-74
2023/12/22 02:11:46;;;;;;;17.70;2.28;;;;;;;5.36;97.79;98399.88;5158988;28;20403;-74
2023/12/22 02:14:17;;;;;;;12.60;1.75;;;;;;;5.31;97.56;98386.34;5159201;28;20062;-73
2023/12/22 02:17:14;;;;;;;14.10;1.85;;;;;;;5.37;98.12;98392.97;5159784;28;20022;-74
2023/12/22 02:19:45;;;;;;;10.05;1.45;;;;;;;5.38;96.73;98394.63;5158610;28;20062;-74
2023/12/22 02:22:16;;;;;;;14.45;1.60;;;;;;;5.41;97.60;98408.28;5158961;28;20034;-75
2023/12/22 02:24:46;;;;;;;8.90;1.50;;;;;;;5.40;98.65;98367.75;5155811;28;20030;-74
2023/12/22 02:27:28;;;;;;;11.27;1.90;;;;;;;5.38;98.49;98383.38;5157339;28;20062;-74
2023/12/22 02:30:13;;;;;;;14.27;1.83;;;;;;;5.37;99.91;98380.88;5155467;28;20436;-74
2023/12/22 02:32:48;;;;;;;13.93;2.13;;;;;;;5.33;100.00;98383.69;5155594;28;20053;-75
2023/12/22 02:35:25;;;;;;;14.95;2.95;;;;;;;5.37;100.00;98387.78;5158743;28;20053;-74
2023/12/22 02:38:00;;;;;;;13.60;1.70;;;;;;;5.26;100.00;98379.69;5154897;28;20033;-74
2023/12/22 02:40:31;;;;;;;5.53;1.23;;;;;;;5.13;100.00;98391.59;5156202;28;20030;-74
2023/12/22 02:43:02;;;;;;;10.25;1.48;;;;;;;4.96;100.00;98397.56;5158542;28;20092;-73
2023/12/22 02:45:33;;;;;;;10.93;1.02;;;;;;;5.01;100.00;98405.13;5158804;28;20030;-74
2023/12/22 02:48:03;;;;;;;10.30;1.60;;;;;;;4.98;100.00;98400.91;5155487;28;20030;-74
2023/12/22 02:50:34;;;;;;;14.40;1.60;;;;;;;4.93;100.00;98394.28;5157781;28;20084;-74
2023/12/22 02:53:04;;;;;;;16.95;2.35;;;;;;;4.92;100.00;98388.28;5157128;28;20041;-74
2023/12/22 02:55:34;;;;;;;11.60;1.58;;;;;;;5.02;100.00;98380.91;5158271;28;20054;-73
2023/12/22 02:58:05;;;;;;;15.02;2.60;;;;;;;4.98;100.00;98377.63;5157591;28;20041;-74
2023/12/22 03:00:35;;;;;;;11.43;1.45;;;;;;;4.91;100.00;98373.66;5158861;28;20379;-73
2023/12/22 03:03:05;;;;;;;15.00;2.00;;;;;;;5.00;100.00;98378.38;5157815;28;20022;-74
2023/12/22 03:05:35;;;;;;;16.25;1.77;;;;;;;5.08;100.00;98380.59;5158000;28;20439;-74
2023/12/22 03:08:06;;;;;;;14.98;1.83;;;;;;;5.15;100.00;98362.09;5158253;28;20022;-74
2023/12/22 03:10:36;;;;;;;22.42;2.30;;;;;;;5.13;100.00;98379.47;5157599;28;20042;-75
2023/12/22 03:13:06;;;;;;;11.18;1.23;;;;;;;5.09;100.00;98364.16;5156379;28;20026;-75
2023/12/22 03:15:36;;;;;;;12.27;1.70;;;;;;;5.19;100.00;98353.28;5156036;28;20058;-74
2023/12/22 03:18:07;;;;;;;8.38;1.05;;;;;;;5.13;100.00;98376.06;5157333;28;20026;-74
2023/12/22 03:20:38;;;;;;;12.10;1.05;;;;;;;5.09;100.00;98382.28;5153128;28;20034;-74
2023/12/22 03:23:08;;;;;;;8.82;1.33;;;;;;;5.14;100.00;98365.63;5155777;28;20026;-73
2023/12/22 03:25:38;;;;;;;15.25;1.30;;;;;;;5.09;100.00;98359.84;5155246;28;20205;-75
2023/12/22 03:28:09;;;;;;;6.15;0.70;;;;;;;4.94;100.00;98372.69;5158098;28;20054;-74
2023/12/22 03:30:39;;;;;;;4.00;0.70;;;;;;;4.81;100.00;98363.84;5156679;28;20034;-74
2023/12/22 03:33:09;;;;;;;4.75;0.70;;;;;;;4.65;100.00;98387.00;5156360;28;20049;-74
2023/12/22 03:35:40;;;;;;;7.07;0.88;;;;;;;4.65;100.00;98361.13;5158000;28;20041;-73
2023/12/22 03:38:10;;;;;;;3.72;0.65;;;;;;;4.57;100.00;98380.50;5157855;28;20054;-73
2023/12/22 03:40:40;;;;;;;3.88;0.80;;;;;;;4.49;100.00;98378.28;5157896;28;20034;-74
2023/12/22 03:43:10;;;;;;;5.97;0.80;;;;;;;4.46;100.00;98377.59;5157994;28;20109;-74
2023/12/22 03:45:41;;;;;;;11.02;1.13;;;;;;;4.47;100.00;98367.16;5157829;28;20022;-74
2023/12/22 03:48:11;;;;;;;7.47;0.88;;;;;;;4.53;100.00;98364.31;5156805;28;20045;-74
2023/12/22 03:50:41;;;;;;;10.05;1.08;;;;;;;4.59;100.00;98360.56;5155926;28;20060;-74
2023/12/22 03:53:12;;;;;;;12.65;1.05;;;;;;;4.63;100.00;98341.44;5155720;28;20083;-74
2023/12/22 03:55:42;;;;;;;6.97;1.00;;;;;;;4.62;100.00;98363.84;5155758;28;20601;-74
2023/12/22 03:58:12;;;;;;;8.07;1.15;;;;;;;4.58;100.00;98359.75;5157430;28;20464;-74
2023/12/22 04:00:43;;;;;;;7.30;1.13;;;;;;;4.51;100.00;98358.38;5157965;28;20026;-74
2023/12/22 04:03:13;;;;;;;8.27;1.00;;;;;;;4.54;100.00;98350.47;5156103;28;20105;-74
2023/12/22 04:05:43;;;;;;;6.45;1.00;;;;;;;4.49;100.00;98362.75;5157526;28;20061;-74
2023/12/22 04:08:14;;;;;;;7.25;1.08;;;;;;;4.43;100.00;98369.97;5156883;28;20030;-73
2023/12/22 04:10:44;;;;;;;9.15;0.82;;;;;;;4.44;100.00;98359.56;5157106;28;20041;-74
2023/12/22 04:13:14;;;;;;;9.85;1.20;;;;;;;4.47;100.00;98354.22;5157012;28;20112;-74
2023/12/22 04:15:45;;;;;;;13.40;1.33;;;;;;;4.41;100.00;98357.13;5155864;28;20031;-73
2023/12/22 04:18:15;;;;;;;17.75;1.60;;;;;;;4.46;100.00;98344.81;5154357;28;20084;-74
2023/12/22 04:20:45;;;;;;;10.23;1.40;;;;;;;4.46;100.00;98347.38;5156605;28;20026;-74
2023/12/22 04:23:16;;;;;;;11.63;1.13;;;;;;;4.47;100.00;98349.06;5156769;28;20373;-74
2023/12/22 04:25:46;;;;;;;12.77;1.90;;;;;;;4.51;100.00;98331.66;5155475;28;20041;-74
2023/12/22 04:28:16;;;;;;;14.95;1.50;;;;;;;4.58;100.00;98326.13;5150191;28;20110;-74
2023/12/22 04:30:47;;;;;;;17.73;2.60;;;;;;;4.59;100.00;98340.72;5153629;28;20026;-74
2023/12/22 04:33:17;;;;;;;15.27;1.85;;;;;;;4.68;100.00;98340.31;5153619;28;20133;-74
2023/12/22 04:35:47;;;;;;;15.05;1.73;;;;;;;4.68;100.00;98348.06;5155956;28;20030;-74
2023/12/22 04:38:18;;;;;;;13.23;1.65;;;;;;;4.73;100.00;98353.84;5156749;28;20045;-74
2023/12/22 04:40:48;;;;;;;17.98;1.80;;;;;;;4.74;100.00;98358.13;5153493;28;20643;-74
2023/12/22 04:43:18;;;;;;;14.35;1.70;;;;;;;4.90;100.00;98361.66;5156838;28;20121;-73
2023/12/22 04:45:49;;;;;;;10.23;1.27;;;;;;;4.93;99.58;98343.38;5157485;28;20034;-74
2023/12/22 04:48:19;;;;;;;12.35;1.75;;;;;;;5.02;98.80;98314.47;5156075;28;20098;-75
2023/12/22 04:50:49;;;;;;;15.25;1.75;;;;;;;4.87;98.85;98348.00;5155316;28;20432;-74
2023/12/22 04:53:20;;;;;;;14.27;1.58;;;;;;;4.99;98.95;98366.34;5153373;28;20101;-74
2023/12/22 04:55:50;;;;;;;9.38;1.65;;;;;;;5.00;99.34;98377.56;5156801;28;20822;-75
2023/12/22 04:58:22;;;;;;;14.93;1.42;;;;;;;4.95;100.00;98385.53;5156757;28;20049;-75
2023/12/22 05:00:52;;;;;;;14.38;2.15;;;;;;;4.69;100.00;98377.34;5157065;28;20369;-74
2023/12/22 05:03:22;;;;;;;16.77;2.25;;;;;;;4.68;100.00;98393.78;5155682;28;20030;-73
2023/12/22 05:05:52;;;;;;;19.98;1.88;;;;;;;4.66;100.00;98400.78;5157232;28;20112;-74
2023/12/22 05:08:23;;;;;;;14.50;1.00;;;;;;;4.64;100.00;98405.19;5156496;28;20026;-74
2023/12/22 05:10:53;;;;;;;10.35;1.27;;;;;;;4.58;100.00;98406.31;5155976;28;20085;-74
2023/12/22 05:13:23;;;;;;;10.93;1.58;;;;;;;4.50;100.00;98412.72;5152894;28;20030;-75
2023/12/22 05:15:54;;;;;;;16.10;1.80;;;;;;;4.55;100.00;98416.78;5154679;28;20030;-74
2023/12/22 05:18:25;;;;;;;19.02;1.80;;;;;;;4.49;100.00;98429.16;5155611;28;20387;-73
2023/12/22 05:20:56;;;;;;;14.13;1.73;;;;;;;4.46;100.00;98416.38;5156557;28;20029;-74
2023/12/22 05:23:26;;;;;;;11.15;1.52;;;;;;;4.47;100.00;98412.88;5155737;28;20395;-74
2023/12/22 05:25:56;;;;;;;11.02;1.63;;;;;;;4.29;100.00;98419.72;5155405;28;20034;-74
2023/12/22 05:28:27;;;;;;;7.18;1.23;;;;;;;4.38;100.00;98398.63;5153969;28;20041;-74
2023/12/22 05:30:57;;;;;;;17.08;1.85;;;;;;;4.48;100.00;98414.56;5158085;28;20139;-74
2023/12/22 05:33:27;;;;;;;17.98;1.70;;;;;;;4.51;100.00;98397.16;5160234;28;20030;-73
2023/12/22 05:35:57;;;;;;;16.00;2.20;;;;;;;4.52;100.00;98398.84;5160768;28;20031;-74
2023/12/22 05:38:28;;;;;;;11.38;1.83;;;;;;;4.57;100.00;98396.00;5159889;28;20446;-74
2023/12/22 05:40:58;;;;;;;12.80;2.17;;;;;;;4.52;100.00;98391.09;5160243;28;20476;-74
2023/12/22 05:43:28;;;;;;;10.85;1.50;;;;;;;4.51;100.00;98397.16;5160284;28;20038;-73
2023/12/22 05:45:59;;;;;;;10.35;1.40;;;;;;;4.46;100.00;98401.69;5160706;28;20030;-73
2023/12/22 05:48:30;;;;;;;7.63;1.35;;;;;;;4.46;100.00;98411.22;5158674;28;20053;-74
2023/12/22 05:51:02;;;;;;;8.50;1.52;;;;;;;4.50;100.00;98418.72;5160009;28;20636;-72
2023/12/22 05:53:32;;;;;;;15.35;1.40;;;;;;;4.63;100.00;98414.69;5158335;28;20045;-74
2023/12/22 05:56:03;;;;;;;10.95;1.55;;;;;;;4.58;100.00;98408.88;5159318;28;20413;-74
2023/12/22 05:58:33;;;;;;;15.88;1.50;;;;;;;4.74;100.00;98396.91;5159189;28;20495;-73
2023/12/22 06:01:03;;;;;;;8.68;1.02;;;;;;;4.69;100.00;98405.81;5159707;28;20052;-74
2023/12/22 06:03:35;;;;;;;11.88;1.50;;;;;;;4.78;100.00;98424.31;5159850;28;20019;-75
2023/12/22 06:06:05;;;;;;;11.07;1.73;;;;;;;4.71;100.00;98424.66;5159446;28;20709;-74
2023/12/22 06:08:37;;;;;;;11.07;1.50;;;;;;;4.69;100.00;98417.00;5155870;28;20030;-74
2023/12/22 06:11:07;;;;;;;14.98;1.95;;;;;;;4.76;100.00;98417.53;5158344;28;20492;-74
2023/12/22 06:13:38;;;;;;;13.68;1.20;;;;;;;4.82;100.00;98412.09;5159503;28;20034;-74
2023/12/22 06:16:13;;;;;;;10.93;1.30;;;;;;;4.70;100.00;98410.91;5158125;28;20506;-76
2023/12/22 06:18:43;;;;;;;;;;;;;;;4.66;100.00;98403.38;5160024;28;20034;-74
2023/12/22 06:21:15;;;;;;;9.18;1.70;;;;;;;4.67;100.00;98403.28;5159612;28;20319;-74
2023/12/22 06:23:45;;;;;;;13.48;1.42;;;;;;;4.77;100.00;98424.41;5159280;28;20065;-74
2023/12/22 06:26:15;;;;;;;17.17;1.48;;;;;;;4.75;100.00;98398.59;5159321;28;20053;-74
2023/12/22 06:28:45;;;;;;;8.00;1.30;;;;;;;4.82;100.00;98409.50;5158552;28;20092;-74
2023/12/22 06:31:20;;;;;;;12.43;1.60;;;;;;;4.82;100.00;98427.59;5158508;28;20574;-74
2023/12/22 06:33:51;;;;;;;12.63;1.65;;;;;;;4.84;100.00;98439.53;5158265;28;20383;-74
2023/12/22 06:36:25;;;;;;;12.05;1.50;;;;;;;4.86;100.00;98453.28;5156746;28;20034;-74
2023/12/22 06:38:55;;;;;;;15.07;1.90;;;;;;;4.89;100.00;98457.44;5157436;28;20035;-75
2023/12/22 06:41:30;;;;;;;19.33;1.75;;;;;;;5.01;100.00;98473.22;5157320;28;20033;-74
2023/12/22 06:44:00;;;;;;;13.57;1.60;;;;;;;5.00;100.00;98450.84;5157535;28;20010;-74
2023/12/22 06:46:31;;;;;;;12.50;1.50;;;;;;;5.00;100.00;98478.50;5157922;28;20384;-74
2023/12/22 06:49:01;;;;;;;15.52;1.60;;;;;;;5.05;100.00;98464.44;5158163;28;20051;-74
2023/12/22 06:51:34;;;;;;;9.20;1.60;;;;;;;5.06;100.00;98467.84;5155550;28;20041;-73
2023/12/22 06:54:05;;;;;;;6.28;1.17;;;;;;;4.99;100.00;98464.69;5158686;28;20158;-74
2023/12/22 06:56:35;;;;;;;7.70;1.50;;;;;;;4.93;100.00;98462.41;5155650;28;20043;-73
2023/12/22 06:59:06;;;;;;;11.13;1.30;;;;;;;4.89;100.00;98483.31;5156247;28;20526;-74
2023/12/22 07:01:36;;;;;;;7.97;0.93;;;;;;;4.80;100.00;98476.81;5155753;28;20029;-74
2023/12/22 07:04:06;;;;;;;7.22;1.00;;;;;;;4.83;100.00;98452.56;5157842;28;20073;-72
2023/12/22 07:06:36;;;;;;;5.15;0.80;;;;;;;4.74;100.00;98460.72;5155823;28;20024;-73
2023/12/22 07:09:16;;;;;;;6.05;0.95;;;;;;;4.74;100.00;98471.09;5158387;28;20034;-72
2023/12/22 07:11:52;;;;;;;5.35;0.80;;;;;;;4.76;100.00;98477.88;5158463;28;20801;-74
2023/12/22 07:14:22;;;;;;;7.75;0.80;;;;;;;4.72;100.00;98501.34;5158276;28;20041;-74
2023/12/22 07:16:53;;;;;;;3.15;0.75;;;;;;;4.70;100.00;98492.84;5158520;28;20034;-74
2023/12/22 07:19:23;;;;;;;5.70;0.80;;;;;;;4.70;96.68;98514.38;5158367;28;20113;-73
2023/12/22 07:21:53;;;;;;;5.50;0.85;;;;;;;4.78;95.70;98517.44;5158887;28;20502;-74
2023/12/22 07:24:24;;;;;;;7.50;1.15;;;;;;;4.83;93.52;98506.91;5158647;28;20203;-74
2023/12/22 07:26:54;;;;;;;7.03;0.90;;;;;;;4.89;92.83;98510.03;5157405;28;20492;-74
2023/12/22 07:29:24;;;;;;;9.52;1.35;;;;;;;4.91;92.02;98520.31;5157588;28;20091;-73
2023/12/22 07:31:54;;;;;;;11.50;1.80;;;;;;;4.90;91.53;98522.06;5158526;28;20030;-74
2023/12/22 07:34:25;;;;;;;4.05;0.70;;;;;;;4.89;92.26;98538.50;5156630;28;20058;-73
2023/12/22 07:36:55;;;;;;;5.05;0.75;;;;;;;4.88;91.81;98528.22;5158530;28;20033;-74
2023/12/22 07:39:26;;;;;;;5.65;0.85;;;;;;;4.89;92.22;98542.81;5205271;23;20047;-77
2023/12/22 07:41:56;;;;;;;9.85;1.30;;;;;;;4.99;91.82;98542.34;5136180;28;20041;-76
2023/12/22 07:44:26;;;;;;;9.07;1.00;;;;;;;5.05;91.99;98551.56;5133847;28;20464;-76
2023/12/22 07:47:00;;;;;;;9.40;1.05;;;;;;;5.09;92.12;98582.44;5139224;28;20054;-76
2023/12/22 07:49:30;;;;;;;6.38;0.80;;;;;;;5.10;92.25;98599.63;5138419;28;20034;-76
2023/12/22 07:52:00;;;;;;;8.45;0.95;;;;;;;5.17;92.53;98598.44;5139375;28;20385;-75
2023/12/22 07:54:31;;;;;;;6.47;0.75;;;;;;;5.23;92.62;98597.31;5137913;28;20023;-76
2023/12/22 07:57:01;;;;;;;9.10;1.15;;;;;;;5.18;94.45;98609.66;5135364;28;20493;-76
2023/12/22 07:59:31;;;;;;;5.30;0.80;;;;;;;4.93;95.30;98594.38;5137736;28;20085;-76
2023/12/22 08:02:02;;;;;;;3.78;0.77;;;;;;;4.85;95.85;98601.66;5136038;28;20026;-76
2023/12/22 08:04:33;;;;;;;7.20;0.90;;;;;;;4.88;96.04;98574.78;5137105;28;20030;-77
2023/12/22 08:07:04;;;;;;;7.18;0.63;;;;;;;4.82;95.87;98582.84;5137294;28;20038;-76
2023/12/22 08:09:34;;;;;;;3.28;0.65;;;;;;;4.82;96.22;98578.47;5138068;28;20026;-77
2023/12/22 08:12:05;;;;;;;11.40;1.38;;;;;;;4.75;96.62;98579.69;5137451;28;20101;-76
2023/12/22 08:14:35;;;;;;;8.85;2.45;;;;;;;4.76;97.53;98585.66;5137899;28;20122;-76
2023/12/22 08:17:05;;;;;;;23.45;7.15;;;;;;;4.94;97.66;98601.22;5138438;28;20018;-77
2023/12/22 08:19:38;;;;;;;19.65;6.53;;;;;;;4.99;97.86;98598.44;5138496;28;20229;-76
2023/12/22 08:22:14;;;;;;;12.48;1.88;;;;;;;4.79;98.54;98626.97;5135884;28;20027;-76
2023/12/22 08:24:45;;;;;;;7.82;2.10;;;;;;;4.71;100.00;98637.63;5136338;28;20030;-76
2023/12/22 08:27:15;;;;;;;12.73;2.00;;;;;;;4.52;100.00;98631.56;5133085;28;20455;-76
2023/12/22 08:29:45;;;;;;;13.68;1.67;;;;;;;4.35;100.00;98661.59;5135007;28;20050;-76
2023/12/22 08:32:16;;;;;;;11.40;1.63;;;;;;;4.42;100.00;98643.19;5138196;28;20044;-75
2023/12/22 08:34:46;;;;;;;6.88;1.50;;;;;;;4.33;100.00;98622.88;5142500;28;20037;-75
2023/12/22 08:37:16;;;;;;;11.00;1.58;;;;;;;4.26;100.00;98633.56;5138999;28;20029;-75
2023/12/22 08:39:46;;;;;;;7.63;1.15;;;;;;;4.27;100.00;98630.06;5138451;28;20034;-76
2023/12/22 08:42:17;;;;;;;6.28;0.88;;;;;;;4.31;100.00;98618.69;5132914;28;20026;-75
2023/12/22 08:44:48;;;;;;;6.40;1.10;;;;;;;4.44;100.00;98641.38;5139190;28;20034;-76
2023/12/22 08:47:18;;;;;;;7.15;1.00;;;;;;;4.51;100.00;98641.97;5139666;28;20030;-75
2023/12/22 08:49:49;;;;;;;13.93;1.40;;;;;;;4.43;100.00;98657.78;5137838;28;20030;-75
2023/12/22 08:52:19;;;;;;;9.32;1.63;;;;;;;4.42;100.00;98643.19;5137377;28;20539;-76
2023/12/22 08:54:49;;;;;;;16.15;1.38;;;;;;;4.32;100.00;98628.97;5138260;28;20439;-76
2023/12/22 08:57:19;;;;;;;11.90;1.50;;;;;;;4.27;100.00;98658.50;5137959;28;20530;-75
2023/12/22 08:59:50;;;;;;;9.77;1.55;;;;;;;4.41;100.00;98669.09;5135617;28;20038;-76
2023/12/22 09:02:20;;;;;;;12.32;1.70;;;;;;;4.50;100.00;98655.81;5138192;28;20031;-75
2023/12/22 09:04:50;;;;;;;12.00;1.98;;;;;;;4.62;100.00;98643.19;5138437;28;20030;-76
2023/12/22 09:07:22;;;;;;;17.10;2.30;;;;;;;4.68;100.00;98655.03;5140315;28;20031;-76
2023/12/22 09:09:52;;;;;;;14.60;2.03;;;;;;;4.70;100.00;98660.97;5134093;28;20054;-76
2023/12/22 09:12:23;;;;;;;8.77;1.60;;;;;;;4.94;100.00;98668.50;5143495;28;20034;-76
2023/12/22 09:14:53;;;;;;;11.90;1.80;;;;;;;5.17;100.00;98657.97;5142724;28;20030;-77
2023/12/22 09:17:25;;;;;;;16.85;1.95;;;;;;;5.37;100.00;98657.09;5142053;28;20543;-76
2023/12/22 09:19:56;;;;;;;21.45;2.47;;;;;;;5.50;100.00;98651.28;5142570;28;20023;-77
2023/12/22 09:22:26;;;;;;;16.83;1.98;;;;;;;5.54;100.00;98658.84;5142566;28;20488;-76
2023/12/22 09:24:56;;;;;;;17.27;1.77;;;;;;;5.65;100.00;98654.00;5140294;28;20026;-76
2023/12/22 09:27:30;;;;;;;16.02;2.13;;;;;;;5.77;100.00;98661.19;5141309;28;20027;-76
2023/12/22 09:30:00;;;;;;;17.75;2.42;;;;;;;5.93;99.38;98649.22;5138357;28;20038;-75
2023/12/22 09:32:30;;;;;;;19.52;2.25;;;;;;;6.00;98.70;98657.53;5142415;28;20412;-76
2023/12/22 09:35:01;;;;;;;21.50;2.72;;;;;;;6.22;97.93;98666.00;5141411;28;20034;-76
2023/12/22 09:37:31;;;;;;;17.50;2.70;;;;;;;6.31;95.93;98671.56;5140316;28;20029;-76
2023/12/22 09:40:02;;;;;;;20.73;2.90;;;;;;;6.37;95.99;98665.22;5141816;28;20035;-76
2023/12/22 09:42:32;;;;;;;22.58;3.67;;;;;;;6.43;95.44;98675.31;5140695;28;20027;-76
2023/12/22 09:45:06;;;;;;;25.40;3.97;;;;;;;6.26;96.78;98667.53;5131761;28;20093;-76
2023/12/22 09:47:37;;;;;;;12.23;1.80;;;;;;;6.23;94.32;98652.94;5130089;28;20023;-77
2023/12/22 09:50:09;;;;;;;18.73;2.53;;;;;;;6.25;94.39;98671.84;5135809;28;20452;-75
2023/12/22 09:52:42;;;;;;;24.80;3.13;;;;;;;6.19;94.38;98660.94;5133382;28;20046;-76
2023/12/22 09:55:15;;;;;;;22.48;2.50;;;;;;;6.12;95.52;98665.56;5140510;28;20260;-76
2023/12/22 09:57:47;;;;;;;21.05;2.42;;;;;;;6.00;97.10;98676.53;5139905;28;20527;-75
2023/12/22 10:00:18;;;;;;;12.70;2.60;;;;;;;5.62;100.00;98671.44;5140687;28;20532;-76
2023/12/22 10:02:48;;;;;;;22.15;1.98;;;;;;;5.37;100.00;98693.34;5136350;28;20326;-75
2023/12/22 10:05:18;;;;;;;12.48;1.40;;;;;;;5.08;100.00;98693.78;5137703;28;20542;-76
2023/12/22 10:07:50;;;;;;;13.88;2.20;;;;;;;5.06;100.00;98685.25;5138260;28;20026;-75
2023/12/22 10:10:21;;;;;;;15.25;1.90;;;;;;;5.13;100.00;98673.75;5137330;28;20393;-75
2023/12/22 10:12:52;;;;;;;16.63;3.00;;;;;;;5.18;100.00;98671.78;5138360;28;20049;-76
2023/12/22 10:15:25;;;;;;;21.83;4.18;;;;;;;5.32;100.00;98669.41;5143639;28;20370;-76
2023/12/22 10:17:56;;;;;;;19.13;3.22;;;;;;;5.34;100.00;98673.59;5136767;28;20027;-76
2023/12/22 10:20:26;;;;;;;22.00;3.10;;;;;;;5.49;100.00;98657.38;5140062;28;20029;-77
2023/12/22 10:22:56;;;;;;;17.90;2.05;;;;;;;5.50;100.00;98653.88;5136349;28;20031;-75
2023/12/22 10:25:30;;;;;;;14.63;2.30;;;;;;;5.80;100.00;98639.53;5142612;28;20026;-75
2023/12/22 10:28:01;;;;;;;14.27;2.28;;;;;;;5.91;100.00;98645.03;5134825;28;20027;-76
2023/12/22 10:30:32;;;;;;;18.20;3.38;;;;;;;6.06;100.00;98636.53;5135035;28;20023;-76
2023/12/22 10:33:06;;;;;;;19.85;6.47;;;;;;;6.10;99.51;98661.41;5135566;28;20034;-76
2023/12/22 10:35:36;;;;;;;24.42;8.07;;;;;;;6.17;98.03;98662.75;5139130;28;20459;-76
2023/12/22 10:38:07;;;;;;;15.90;3.25;;;;;;;6.11;96.32;98668.25;5137973;28;20106;-76
2023/12/22 10:40:37;;;;;;;23.60;7.75;;;;;;;6.13;94.62;98663.84;5135277;28;20492;-76
2023/12/22 10:43:08;;;;;;;23.52;6.82;;;;;;;6.22;95.18;98648.66;5134226;28;20035;-76
2023/12/22 10:45:40;;;;;;;11.57;2.58;;;;;;;6.25;94.88;98645.09;5135394;28;20039;-76
2023/12/22 10:48:10;;;;;;;16.08;3.15;;;;;;;6.19;93.97;98656.59;5138791;28;20054;-75
2023/12/22 10:50:41;;;;;;;9.90;2.75;;;;;;;6.22;94.39;98666.00;5136001;28;20109;-76
2023/12/22 10:53:11;;;;;;;9.57;2.85;;;;;;;6.17;93.13;98665.34;5139516;28;20281;-76
2023/12/22 10:55:42;;;;;;;13.07;2.03;;;;;;;6.19;93.95;98668.72;5137533;28;20093;-76
2023/12/22 10:58:12;;;;;;;9.15;2.75;;;;;;;6.01;94.82;98679.97;5138142;28;20030;-75
2023/12/22 11:00:46;;;;;;;6.03;1.67;;;;;;;5.88;97.46;98671.94;5135884;28;20233;-75
2023/12/22 11:03:18;;;;;;;10.55;1.98;;;;;;;5.75;99.69;98675.97;5135728;28;20027;-76
2023/12/22 11:05:51;;;;;;;10.43;2.00;;;;;;;5.58;100.00;98688.03;5135510;28;20030;-76
2023/12/22 11:08:23;;;;;;;13.73;2.20;;;;;;;5.52;100.00;98693.47;5136267;28;20093;-75
2023/12/22 11:10:58;;;;;;;7.60;1.70;;;;;;;5.34;100.00;98689.13;5141002;28;20392;-75
2023/12/22 11:13:29;;;;;;;5.32;1.40;;;;;;;5.15;100.00;98672.75;5138107;28;20041;-76
2023/12/22 11:16:00;;;;;;;7.07;1.10;;;;;;;4.89;100.00;98675.66;5137786;28;20029;-75
2023/12/22 11:18:33;;;;;;;8.30;1.23;;;;;;;4.76;100.00;98677.06;5132955;28;20392;-72
2023/12/22 11:21:06;;;;;;;6.07;1.13;;;;;;;4.76;100.00;98658.09;5138854;28;20033;-75
2023/12/22 11:23:38;;;;;;;4.75;0.93;;;;;;;4.74;100.00;98681.47;5136304;28;20102;-75
2023/12/22 11:26:11;;;;;;;3.33;0.93;;;;;;;4.74;100.00;98671.13;5137135;28;20690;-76
2023/12/22 11:28:43;;;;;;;8.60;1.10;;;;;;;4.73;100.00;98656.50;5138734;28;20061;-75
2023/12/22 11:31:15;;;;;;;6.90;1.25;;;;;;;4.77;100.00;98675.34;5136783;28;20551;-75
2023/12/22 11:33:50;;;;;;;7.22;1.63;;;;;;;4.77;100.00;98691.69;5136758;28;20035;-74
2023/12/22 11:36:22;;;;;;;6.33;1.00;;;;;;;4.82;100.00;98679.38;5136603;28;20070;-74
2023/12/22 11:38:53;;;;;;;10.80;1.92;;;;;;;4.84;100.00;98677.56;5137172;28;20301;-75
2023/12/22 11:41:30;;;;;;;10.23;1.40;;;;;;;4.91;100.00;98658.31;5137053;28;20031;-76
2023/12/22 11:44:03;;;;;;;11.15;2.05;;;;;;;5.09;100.00;98662.66;5134727;28;20669;-75
2023/12/22 11:46:34;;;;;;;12.40;3.83;;;;;;;5.04;100.00;98649.09;5132925;28;20113;-75
2023/12/22 11:49:05;;;;;;;15.88;5.05;;;;;;;5.26;100.00;98644.63;5129145;28;20505;-75